Pallada — UDUI — position and weather

sailwx.info

Track history (hours):
 
Tides and Currents Weather Stations Pressure Air Temp Water Temp Dewpoint Dewpoint Depression Visibility Wind Speed Wind Dir Waves Ship Positions

Pallada

Last reported at 2014-Aug-18 12:13 UTC. Time now 2014-Oct-25 02:59 UTC.
Position N 38°44' E 121°55'.
Warning: this ship's position is months out of date.

Length 109 m; draft 6.8 m.

Type: Sailing vessel. MMSI: 273815200.

Date/timePositionNaut miles runAvg speedWind from/ knotsBaromVisibWave heightAir tempDewpointWater temp
2014-Aug-18 12:13N 38°44' E 121°55'5 7.5
2014-Aug-18 11:33N 38°47' E 121°50'7 6.7
2014-Aug-18 10:31N 38°53' E 121°45'  
2014-Aug-15 02:18N 38°54' E 121°46'6 6.8
2014-Aug-15 01:28N 38°49' E 121°49'5 5.2
2014-Aug-15 00:26N 38°45' E 121°52'21 0.6
2014-Aug-13 14:25N 38°26' E 122°04'0 0.0
2014-Aug-13 12:07N 38°26' E 122°04'0 0.0
2014-Aug-13 04:07N 38°26' E 122°04'0 0.1
2014-Aug-13 03:13N 38°26' E 122°04'0 0.0
2014-Aug-13 02:31N 38°26' E 122°04'0 0.1
2014-Aug-12 23:19N 38°26' E 122°04'0 0.2
2014-Aug-12 22:25N 38°26' E 122°04'0 0.0
2014-Aug-12 17:25N 38°26' E 122°04'0 0.0
2014-Aug-12 13:19N 38°26' E 122°04'0 0.1
2014-Aug-12 12:31N 38°26' E 122°04'0 0.0
2014-Aug-12 10:25N 38°26' E 122°04'0 0.0
2014-Aug-12 09:32N 38°26' E 122°04'0 0.0
2014-Aug-12 08:32N 38°26' E 122°04'0 0.1
2014-Aug-12 07:26N 38°26' E 122°04'0 0.0
2014-Aug-12 06:32N 38°26' E 122°04'0 0.0
2014-Aug-12 05:31N 38°26' E 122°04'0 0.0
2014-Aug-12 04:32N 38°26' E 122°04'0 0.0
2014-Aug-12 02:25N 38°26' E 122°04'0 0.0
2014-Aug-12 00:14N 38°26' E 122°04'0 0.1
2014-Aug-11 23:31N 38°26' E 122°04'15 1.0
2014-Aug-11 08:19N 38°13' E 122°13'5 6.9
2014-Aug-11 07:33N 38°09' E 122°18'  
Track history (hours):
 
Tides and Currents Weather Stations Pressure Air Temp Water Temp Dewpoint Dewpoint Depression Visibility Wind Speed Wind Dir Waves Ship Positions

Pallada

Last reported at 2014-Aug-18 12:13 UTC. Time now 2014-Oct-25 02:59 UTC.
Position N 38°44' E 121°55'.
Warning: this ship's position is months out of date.

Length 109 m; draft 6.8 m.

Type: Sailing vessel. MMSI: 273815200.

Date/timePositionNaut miles runAvg speedWind from/ knotsBaromVisibWave heightAir tempDewpointWater temp
2014-Aug-18 12:13N 38°44' E 121°55'5 7.5
2014-Aug-18 11:33N 38°47' E 121°50'7 6.7
2014-Aug-18 10:31N 38°53' E 121°45'  
2014-Aug-15 02:18N 38°54' E 121°46'6 6.8
2014-Aug-15 01:28N 38°49' E 121°49'5 5.2
2014-Aug-15 00:26N 38°45' E 121°52'21 0.6
2014-Aug-13 14:25N 38°26' E 122°04'0 0.0
2014-Aug-13 12:07N 38°26' E 122°04'0 0.0
2014-Aug-13 04:07N 38°26' E 122°04'0 0.1
2014-Aug-13 03:13N 38°26' E 122°04'0 0.0
2014-Aug-13 02:31N 38°26' E 122°04'0 0.1
2014-Aug-12 23:19N 38°26' E 122°04'0 0.2
2014-Aug-12 22:25N 38°26' E 122°04'0 0.0
2014-Aug-12 17:25N 38°26' E 122°04'0 0.0
2014-Aug-12 13:19N 38°26' E 122°04'0 0.1
2014-Aug-12 12:31N 38°26' E 122°04'0 0.0
2014-Aug-12 10:25N 38°26' E 122°04'0 0.0
2014-Aug-12 09:32N 38°26' E 122°04'0 0.0
2014-Aug-12 08:32N 38°26' E 122°04'0 0.1
2014-Aug-12 07:26N 38°26' E 122°04'0 0.0
2014-Aug-12 06:32N 38°26' E 122°04'0 0.0
2014-Aug-12 05:31N 38°26' E 122°04'0 0.0
2014-Aug-12 04:32N 38°26' E 122°04'0 0.0
2014-Aug-12 02:25N 38°26' E 122°04'0 0.0
2014-Aug-12 00:14N 38°26' E 122°04'0 0.1
2014-Aug-11 23:31N 38°26' E 122°04'15 1.0
2014-Aug-11 08:19N 38°13' E 122°13'5 6.9
2014-Aug-11 07:33N 38°09' E 122°18'  

Dump ship's entire track history